createdAt,value
2017-08-22T08:48:31.148Z,376
2017-08-22T08:49:33.044Z,399
2017-08-22T08:50:35.133Z,393
2017-08-22T08:51:36.862Z,376
2017-08-22T08:52:38.994Z,348
2017-08-22T08:53:40.888Z,365
2017-08-22T08:54:42.921Z,388
2017-08-22T08:55:44.480Z,399
2017-08-22T08:56:46.056Z,371
2017-08-22T08:57:47.626Z,405
2017-08-22T08:58:49.466Z,405
2017-08-22T08:59:51.391Z,405
2017-08-22T09:00:52.983Z,382
2017-08-22T09:01:54.503Z,388
2017-08-22T09:02:56.098Z,405
2017-08-22T09:03:57.947Z,410
2017-08-22T09:04:59.529Z,410
2017-08-22T09:06:02.844Z,410
2017-08-22T09:07:04.351Z,421
2017-08-22T09:08:05.865Z,416
2017-08-22T09:09:07.452Z,410
2017-08-22T09:10:09.212Z,421
2017-08-22T09:11:10.797Z,433
2017-08-22T09:12:12.236Z,438
2017-08-22T09:13:14.052Z,444
2017-08-22T09:14:15.750Z,450
2017-08-22T09:15:17.269Z,455
2017-08-22T09:16:19.035Z,450
2017-08-22T09:17:20.603Z,450
2017-08-22T09:18:22.405Z,444
2017-08-22T09:19:23.956Z,450
2017-08-22T09:20:25.502Z,450
2017-08-22T09:21:27.253Z,495
2017-08-22T09:22:28.773Z,444
2017-08-22T09:23:30.337Z,483
2017-08-22T09:24:31.934Z,343
2017-08-22T09:25:33.526Z,298
2017-08-22T09:26:35.107Z,264
2017-08-22T09:27:37.220Z,241
2017-08-22T09:28:38.800Z,241
2017-08-22T09:29:40.340Z,208
2017-08-22T09:30:41.954Z,208
2017-08-22T09:31:43.629Z,219
2017-08-22T09:32:45.330Z,236
2017-08-22T09:33:47.208Z,247
2017-08-22T09:34:48.983Z,247
2017-08-22T09:35:50.610Z,253
2017-08-22T09:36:52.347Z,281
2017-08-22T09:37:54.135Z,315
2017-08-22T09:38:56.015Z,326
2017-08-22T09:41:08.588Z,511
2017-08-22T09:42:10.140Z,489
2017-08-22T09:43:12.678Z,281
2017-08-22T09:44:14.392Z,258
2017-08-22T09:45:16.994Z,241
2017-08-22T09:46:18.890Z,241
2017-08-22T09:47:20.738Z,236
2017-08-22T09:48:22.811Z,230
2017-08-22T09:49:24.371Z,230
2017-08-22T09:50:25.948Z,236
2017-08-22T09:51:27.607Z,258
2017-08-22T09:52:29.336Z,286
2017-08-22T09:53:31.089Z,331
2017-08-22T09:54:32.750Z,427
2017-08-22T09:55:34.444Z,590
2017-08-22T09:56:36.225Z,596
2017-08-22T09:57:37.863Z,590
2017-08-22T09:58:41.618Z,393
2017-08-22T09:59:46.498Z,360
2017-08-22T10:00:49.246Z,433
2017-08-22T10:01:50.813Z,545
2017-08-22T10:02:52.580Z,528
2017-08-22T10:03:54.503Z,466
2017-08-22T10:04:56.310Z,551
2017-08-22T10:05:58.288Z,354
2017-08-22T10:07:01.377Z,365
2017-08-22T10:08:04.761Z,551
2017-08-22T10:09:06.389Z,556
2017-08-22T10:10:08.765Z,410
2017-08-22T10:11:10.610Z,607
2017-08-22T10:12:16.222Z,613
2017-08-22T10:13:18.095Z,618
2017-08-22T10:14:19.938Z,630
2017-08-22T10:15:21.816Z,618
2017-08-22T10:16:23.757Z,613
2017-08-22T10:17:25.416Z,579
2017-08-22T10:18:27.256Z,551
2017-08-22T10:19:28.877Z,399
2017-08-22T10:20:31.081Z,421
2017-08-22T10:21:32.634Z,478
2017-08-22T10:22:34.290Z,579
2017-08-22T10:23:35.971Z,556
2017-08-22T10:24:37.829Z,466
2017-08-22T10:25:39.527Z,450
2017-08-22T10:26:41.326Z,568
2017-08-22T10:27:42.998Z,540
2017-08-22T10:28:44.816Z,528
2017-08-22T10:29:46.609Z,534
2017-08-22T10:30:48.560Z,540
2017-08-22T10:31:50.277Z,540
2017-08-22T10:32:52.217Z,540
2017-08-22T10:33:53.776Z,568
2017-08-22T10:34:55.290Z,585
2017-08-22T10:35:58.670Z,585
2017-08-22T10:37:00.898Z,556
2017-08-22T10:38:02.433Z,613
2017-08-22T10:39:04.243Z,613
2017-08-22T10:40:05.778Z,607
2017-08-22T10:41:07.617Z,585
2017-08-22T10:42:09.192Z,511
2017-08-22T10:43:10.750Z,573
2017-08-22T10:44:12.268Z,596
2017-08-22T10:45:13.803Z,601
2017-08-22T10:46:15.341Z,596
2017-08-22T10:47:16.816Z,528
2017-08-22T10:48:18.382Z,590
2017-08-22T10:49:19.879Z,568
2017-08-22T10:50:21.428Z,585
2017-08-22T10:51:22.943Z,596
2017-08-22T10:52:24.489Z,618
2017-08-22T10:53:26.024Z,652
2017-08-22T10:54:27.551Z,680
2017-08-22T10:55:29.037Z,697
2017-08-22T10:56:30.594Z,708
2017-08-22T10:57:32.159Z,675
2017-08-22T10:58:33.772Z,624
2017-08-22T10:59:35.349Z,483
2017-08-22T11:00:36.923Z,478
2017-08-22T11:01:38.570Z,517
2017-08-22T11:02:40.085Z,489
2017-08-22T11:03:41.626Z,675
2017-08-22T11:04:43.171Z,725
2017-08-22T11:05:44.738Z,607
2017-08-22T11:06:46.358Z,450
2017-08-22T11:07:47.921Z,1265
2017-08-22T11:08:49.486Z,489
2017-08-22T11:09:51.143Z,472
2017-08-22T11:10:52.683Z,1046
2017-08-22T11:11:54.344Z,1423
2017-08-22T11:12:55.931Z,1248
2017-08-22T11:13:57.477Z,1001
2017-08-22T11:14:59.074Z,444
2017-08-22T11:16:00.623Z,371
2017-08-22T11:17:02.246Z,343
2017-08-22T11:18:03.833Z,455
2017-08-22T11:19:05.608Z,354
2017-08-22T11:20:07.186Z,360
2017-08-22T11:21:08.705Z,331
2017-08-22T11:22:10.245Z,337
2017-08-22T11:23:11.790Z,365
2017-08-22T11:24:13.329Z,427
2017-08-22T11:25:14.858Z,444
2017-08-22T11:26:16.507Z,540
2017-08-22T11:27:18.120Z,1012
2017-08-22T11:28:19.621Z,1451
2017-08-22T11:29:21.290Z,1530
2017-08-22T11:30:22.936Z,714
2017-08-22T11:31:24.481Z,579
2017-08-22T11:32:25.983Z,545
2017-08-22T11:33:27.563Z,483
2017-08-22T11:34:29.693Z,489
2017-08-22T11:35:31.289Z,545
2017-08-22T11:36:33.550Z,1198
2017-08-22T11:37:35.027Z,1456
2017-08-22T11:38:37.014Z,1141
2017-08-22T11:39:38.557Z,1215
2017-08-22T11:40:40.200Z,1428
2017-08-22T11:41:42.256Z,1462
2017-08-22T11:42:43.886Z,1383
2017-08-22T11:43:45.432Z,1428
2017-08-22T11:44:47.059Z,1175
2017-08-22T11:45:49.102Z,528
2017-08-22T11:46:51.263Z,506
2017-08-22T11:47:53.271Z,528
2017-08-22T11:48:55.013Z,1395
2017-08-22T11:49:56.630Z,596
2017-08-22T11:50:59.248Z,585
2017-08-22T11:52:01.533Z,1434
2017-08-22T11:53:03.526Z,680
2017-08-22T11:54:05.179Z,1051
2017-08-22T11:55:06.875Z,821
2017-08-22T11:56:08.575Z,1231
2017-08-22T11:57:10.167Z,680
2017-08-22T11:58:11.863Z,933
2017-08-22T11:59:13.491Z,905
2017-08-22T12:00:16.161Z,663
2017-08-22T12:01:18.252Z,798
2017-08-22T12:02:20.065Z,888
2017-08-22T12:03:21.738Z,888
2017-08-22T12:04:23.417Z,1029
2017-08-22T12:05:25.021Z,1231
2017-08-22T12:06:26.940Z,1305
2017-08-22T12:07:29.556Z,1299
2017-08-22T12:08:32.319Z,1265
2017-08-22T12:09:35.604Z,1327
2017-08-22T12:10:37.304Z,776
2017-08-22T12:11:40.161Z,1338
2017-08-22T12:12:49.320Z,1338
2017-08-22T12:13:51.152Z,1327
2017-08-22T12:14:53.010Z,765
2017-08-22T12:15:54.717Z,1220
2017-08-22T12:16:56.685Z,489
2017-08-22T12:17:58.536Z,517
2017-08-22T12:19:00.954Z,337
2017-08-22T12:20:02.876Z,320
2017-08-22T12:21:04.576Z,348
2017-08-22T12:22:06.209Z,793
2017-08-22T12:23:07.940Z,450
2017-08-22T12:24:10.169Z,506
2017-08-22T12:25:11.779Z,1243
2017-08-22T12:26:13.458Z,1305
2017-08-22T12:27:15.026Z,1321
2017-08-22T12:28:16.755Z,1299
2017-08-22T12:29:18.724Z,1231
2017-08-22T12:30:20.323Z,731
2017-08-22T12:31:22.400Z,607
2017-08-22T12:32:24.065Z,545
2017-08-22T12:33:26.061Z,562
2017-08-22T12:34:27.912Z,1406
2017-08-22T12:35:29.860Z,1417
2017-08-22T12:36:31.606Z,1378
2017-08-22T12:37:33.412Z,1513
2017-08-22T12:38:35.235Z,1485
2017-08-22T12:39:37.136Z,1434
2017-08-22T12:40:38.994Z,1451
2017-08-22T12:41:40.942Z,1440
2017-08-22T12:42:42.978Z,1468
2017-08-22T12:43:44.884Z,1395
2017-08-22T12:44:46.687Z,601
2017-08-22T12:45:48.540Z,1265
2017-08-22T12:46:50.406Z,1462
2017-08-22T12:47:52.141Z,523
2017-08-22T12:48:53.958Z,528
2017-08-22T12:49:55.721Z,1468
2017-08-22T12:50:57.446Z,1434
2017-08-22T12:51:59.325Z,1451
2017-08-22T12:53:01.141Z,1473
2017-08-22T12:54:02.973Z,1485
2017-08-22T12:55:05.079Z,1473
2017-08-22T12:56:06.839Z,1507
2017-08-22T12:57:08.643Z,1524
2017-08-22T12:58:11.064Z,1507
2017-08-22T12:59:12.937Z,1518
2017-08-22T13:00:14.998Z,1501
2017-08-22T13:01:16.937Z,1485
2017-08-22T13:02:18.767Z,1479
2017-08-22T13:03:20.704Z,1400
2017-08-22T13:04:22.543Z,1411
2017-08-22T13:05:24.328Z,1434
2017-08-22T13:06:26.216Z,1366
2017-08-22T13:07:27.943Z,596
2017-08-22T13:08:29.775Z,883
2017-08-22T13:09:31.555Z,1355
2017-08-22T13:10:33.280Z,1361
2017-08-22T13:11:35.338Z,1417
2017-08-22T13:12:37.136Z,1468
2017-08-22T13:13:38.832Z,1417
2017-08-22T13:14:40.687Z,1400
2017-08-22T13:15:42.612Z,1406
2017-08-22T13:16:44.288Z,1355
2017-08-22T13:17:46.143Z,1293
2017-08-22T13:18:48.017Z,759
2017-08-22T13:19:49.846Z,1378
2017-08-22T13:21:35.349Z,1400
2017-08-22T13:23:21.385Z,1473
2017-08-22T13:25:06.793Z,523
2017-08-22T13:26:50.706Z,466
2017-08-22T13:27:53.182Z,416
2017-08-22T13:28:55.041Z,371
2017-08-22T13:29:56.681Z,331
2017-08-22T13:30:58.571Z,309
2017-08-22T13:32:00.211Z,309
2017-08-22T13:33:01.967Z,303
2017-08-22T13:34:03.822Z,303
2017-08-22T13:35:05.500Z,286
2017-08-22T13:36:07.244Z,270
2017-08-22T13:37:08.945Z,264
2017-08-22T13:38:10.809Z,253
2017-08-22T13:39:12.748Z,236
2017-08-22T13:40:14.429Z,230
2017-08-22T13:41:16.104Z,258
2017-08-22T13:42:17.865Z,303
2017-08-22T13:43:19.732Z,950
2017-08-22T13:44:21.468Z,343
2017-08-22T13:45:23.298Z,343
2017-08-22T13:46:24.990Z,337
2017-08-22T13:47:26.816Z,343
2017-08-22T13:48:28.730Z,399
2017-08-22T13:49:30.660Z,1198
2017-08-22T13:50:32.470Z,382
2017-08-22T13:51:34.263Z,511
2017-08-22T13:52:36.142Z,742
2017-08-22T13:53:37.763Z,1085
2017-08-22T13:54:39.563Z,1040
2017-08-22T13:55:41.336Z,410
2017-08-22T13:56:42.967Z,360
2017-08-22T13:57:44.742Z,320
2017-08-22T13:58:46.480Z,298
2017-08-22T13:59:48.301Z,298
2017-08-22T14:00:50.191Z,320
2017-08-22T14:01:55.221Z,326
2017-08-22T14:02:57.303Z,337
2017-08-22T14:03:59.176Z,365
2017-08-22T14:05:00.857Z,573
2017-08-22T14:06:02.689Z,528
2017-08-22T14:07:04.547Z,1170
2017-08-22T14:08:06.150Z,1203
2017-08-22T14:09:07.965Z,1288
2017-08-22T14:10:10.118Z,1305
2017-08-22T14:11:12.150Z,1344
2017-08-22T14:12:13.986Z,1333
2017-08-22T14:13:15.756Z,1068
2017-08-22T14:14:17.536Z,1237
2017-08-22T14:15:19.794Z,1226
2017-08-22T14:16:21.530Z,1209
2017-08-22T14:17:23.358Z,568
2017-08-22T14:18:25.238Z,1192
2017-08-22T14:19:27.169Z,1181
2017-08-22T14:20:29.006Z,450
2017-08-22T14:21:30.851Z,393
2017-08-22T14:22:32.505Z,405
2017-08-22T14:23:34.243Z,433
2017-08-22T14:24:35.974Z,1046
2017-08-22T14:25:37.772Z,1254
2017-08-22T14:26:39.591Z,1186
2017-08-22T14:27:41.396Z,427
2017-08-22T14:28:43.111Z,365
2017-08-22T14:29:44.821Z,405
2017-08-22T14:30:46.633Z,405
2017-08-22T14:31:48.322Z,438
2017-08-22T14:32:50.124Z,1147
2017-08-22T14:33:51.885Z,1096
2017-08-22T14:34:53.637Z,1085
2017-08-22T14:35:55.376Z,1186
2017-08-22T14:36:57.053Z,1276
2017-08-22T14:37:58.823Z,1276
2017-08-22T14:39:00.614Z,1260
2017-08-22T14:40:02.521Z,1254
2017-08-22T14:41:04.331Z,1192
2017-08-22T14:42:06.279Z,1198
2017-08-22T14:43:08.133Z,1181
2017-08-22T14:44:10.227Z,1136
2017-08-22T14:45:11.864Z,1074
2017-08-22T14:46:13.832Z,1153
2017-08-22T14:47:15.626Z,472
2017-08-22T14:48:17.359Z,1164
2017-08-22T14:49:19.318Z,973
2017-08-22T14:50:21.060Z,1288
2017-08-22T14:51:22.777Z,1276
2017-08-22T14:52:24.553Z,1254
2017-08-22T14:53:26.292Z,1254
2017-08-22T14:54:28.119Z,1260
2017-08-22T14:55:29.977Z,1215
2017-08-22T14:56:31.718Z,1203
2017-08-22T14:57:33.345Z,1158
2017-08-22T14:58:35.170Z,1085
2017-08-22T14:59:36.973Z,1035
2017-08-22T15:00:38.602Z,1012
2017-08-22T15:01:40.434Z,1029
2017-08-22T15:02:42.280Z,973
2017-08-22T15:03:44.060Z,922
2017-08-22T15:04:45.839Z,478
2017-08-22T15:05:47.670Z,433
2017-08-22T15:06:49.340Z,810
2017-08-22T15:07:51.038Z,877
2017-08-22T15:08:52.866Z,894
2017-08-22T15:09:54.682Z,776
2017-08-22T15:10:56.432Z,770
2017-08-22T15:11:58.262Z,427
2017-08-22T15:13:00.075Z,376
2017-08-22T15:14:01.871Z,376
2017-08-22T15:15:03.620Z,855
2017-08-22T15:16:05.491Z,883
2017-08-22T15:17:07.269Z,855
2017-08-22T15:18:08.948Z,382
2017-08-22T15:19:10.678Z,371
2017-08-22T15:20:12.485Z,343
2017-08-22T15:21:14.228Z,309
2017-08-22T15:22:15.871Z,292
2017-08-22T15:23:17.566Z,258
2017-08-22T15:24:19.456Z,241
2017-08-22T15:25:21.113Z,360
2017-08-22T15:26:22.838Z,202
2017-08-22T15:27:24.571Z,185
2017-08-22T15:28:26.255Z,174
2017-08-22T15:29:28.014Z,174
2017-08-22T15:30:29.811Z,191
2017-08-22T15:31:31.604Z,208
2017-08-22T15:32:33.326Z,286
2017-08-22T15:33:35.205Z,213
2017-08-22T15:34:36.896Z,219
2017-08-22T15:35:38.652Z,230
2017-08-22T15:36:40.422Z,455
2017-08-22T15:37:42.172Z,669
2017-08-22T15:38:43.842Z,613
2017-08-22T15:39:45.580Z,573
2017-08-22T15:40:47.333Z,523
2017-08-22T15:41:49.065Z,466
2017-08-22T15:42:50.792Z,500
2017-08-22T15:43:52.623Z,444
2017-08-22T15:44:54.374Z,326
2017-08-22T15:45:56.329Z,241
2017-08-22T15:46:58.122Z,427
2017-08-22T15:48:00.052Z,337
2017-08-22T15:49:01.867Z,354
2017-08-22T15:50:03.651Z,270
2017-08-22T15:51:05.321Z,438
2017-08-22T15:52:08.208Z,517
2017-08-22T15:53:10.382Z,545
2017-08-22T15:54:12.114Z,523
2017-08-22T15:55:14.097Z,275
2017-08-22T15:56:16.220Z,247
2017-08-22T15:57:18.254Z,236
2017-08-22T15:58:19.959Z,213
2017-08-22T15:59:21.747Z,208
2017-08-22T16:00:23.830Z,472
2017-08-22T16:01:25.770Z,472
2017-08-22T16:02:27.604Z,337
2017-08-22T16:03:29.376Z,461
2017-08-22T16:04:30.963Z,354
2017-08-22T16:05:33.444Z,309
2017-08-22T16:06:35.612Z,376
2017-08-22T16:07:37.531Z,483
2017-08-22T16:08:39.494Z,511
2017-08-22T16:09:41.195Z,399
2017-08-22T16:10:46.278Z,405
